Time;durP1;ratioP1;P1;durP2;ratioP2;P2;SDS_P1;SDS_P2;PMS_P1;PMS_P2;Temp;Humidity;BMP_temperature;BMP_pressure;BME280_temperature;BME280_humidity;BME280_pressure;Samples;Min_cycle;Max_cycle;Signal;HPM_P1;HPM_P2
2023/03/17 00:01:41;;;;;;;0.00;0.00;;;;;;;10.26;100.00;99092.50;5007779;28;20471;-77
2023/03/17 00:04:23;;;;;;;0.00;0.00;;;;;;;10.10;100.00;99072.81;4967912;28;20101;-77
2023/03/17 00:06:48;;;;;;;0.00;0.00;;;;;;;10.17;100.00;99086.09;4989655;28;20022;-77
2023/03/17 00:09:16;;;;;;;0.00;0.00;;;;;;;10.23;100.00;99093.09;4988386;28;20027;-76
2023/03/17 00:11:43;;;;;;;0.00;0.00;;;;;;;10.33;100.00;99107.72;4987221;28;20030;-76
2023/03/17 00:14:09;;;;;;;0.00;0.00;;;;;;;10.32;100.00;99098.69;4985909;28;20022;-77
2023/03/17 00:16:41;;;;;;;0.00;0.00;;;;;;;10.37;100.00;99100.59;4977044;28;20022;-77
2023/03/17 00:19:15;;;;;;;0.00;0.00;;;;;;;10.31;100.00;99089.69;4992666;28;20056;-76
2023/03/17 00:21:44;;;;;;;0.00;0.00;;;;;;;10.34;100.00;99098.44;5006905;28;20022;-77
2023/03/17 00:24:11;;;;;;;0.00;0.00;;;;;;;10.41;100.00;99112.53;5003735;28;20559;-77
2023/03/17 00:26:42;;;;;;;0.00;0.00;;;;;;;10.26;100.00;99087.03;4973136;28;20022;-78
2023/03/17 00:29:09;;;;;;;0.00;0.00;;;;;;;10.30;100.00;99092.72;4977621;28;20684;-77
2023/03/17 00:31:36;;;;;;;0.00;0.00;;;;;;;10.28;100.00;99090.28;4984128;28;20026;-76
2023/03/17 00:34:06;;;;;;;0.00;0.00;;;;;;;10.36;100.00;99107.16;4978985;28;20030;-77
2023/03/17 00:36:33;;;;;;;0.00;0.00;;;;;;;10.32;100.00;99101.44;4990610;28;20034;-76
2023/03/17 00:39:01;;;;;;;0.00;0.00;;;;;;;10.29;100.00;99094.66;4973294;28;20025;-78
2023/03/17 00:41:28;;;;;;;0.00;0.00;;;;;;;10.36;100.00;99096.22;4988199;28;20088;-78
2023/03/17 00:43:54;;;;;;;0.00;0.00;;;;;;;10.27;100.00;99094.13;4973289;28;20096;-77
2023/03/17 00:46:34;;;;;;;0.10;0.10;;;;;;;10.39;100.00;99101.09;4987560;28;20026;-77
2023/03/17 00:49:14;;;;;;;0.00;0.00;;;;;;;10.39;100.00;99112.03;4999736;28;20155;-76
2023/03/17 00:51:40;;;;;;;0.00;0.00;;;;;;;10.37;100.00;99117.78;5003186;28;20030;-76
2023/03/17 00:54:05;;;;;;;0.00;0.00;;;;;;;10.34;100.00;99109.34;5000656;28;20022;-75
2023/03/17 00:56:31;;;;;;;0.00;0.00;;;;;;;10.34;100.00;99114.81;4969680;28;20054;-76
2023/03/17 00:58:57;;;;;;;0.00;0.00;;;;;;;10.35;100.00;99111.00;4999424;28;20054;-77
2023/03/17 01:01:22;;;;;;;0.00;0.00;;;;;;;10.30;100.00;99101.72;4969418;28;20026;-78
2023/03/17 01:03:48;;;;;;;0.00;0.00;;;;;;;10.23;100.00;99097.75;4961549;28;20369;-78
2023/03/17 01:06:16;;;;;;;0.00;0.00;;;;;;;10.26;100.00;99097.16;4975637;28;20426;-78
2023/03/17 01:08:43;;;;;;;0.00;0.00;;;;;;;10.30;100.00;99103.66;4992712;28;20030;-77
2023/03/17 01:11:16;;;;;;;0.00;0.00;;;;;;;10.25;100.00;99093.63;4990741;28;20655;-78
2023/03/17 01:13:42;;;;;;;0.00;0.00;;;;;;;10.21;100.00;99092.59;5002718;28;20045;-78
2023/03/17 01:16:09;;;;;;;0.00;0.00;;;;;;;10.17;100.00;99083.34;4966747;28;20033;-78
2023/03/17 01:18:34;;;;;;;0.00;0.00;;;;;;;10.10;100.00;99088.38;4992095;28;20036;-78
2023/03/17 01:21:00;;;;;;;0.00;0.00;;;;;;;10.09;100.00;99095.75;4986432;28;20034;-78
2023/03/17 01:23:27;;;;;;;0.00;0.00;;;;;;;10.03;100.00;99098.84;4977011;28;20144;-78
2023/03/17 01:25:53;;;;;;;0.00;0.00;;;;;;;9.87;100.00;99079.13;4995074;28;20027;-77
2023/03/17 01:28:19;;;;;;;0.00;0.00;;;;;;;9.85;100.00;99073.97;5002451;28;20080;-78
2023/03/17 01:30:47;;;;;;;0.00;0.00;;;;;;;9.83;100.00;99089.00;4982083;28;20021;-77
2023/03/17 01:33:17;;;;;;;0.00;0.00;;;;;;;9.61;100.00;99072.09;4997196;28;20021;-76
2023/03/17 01:35:44;;;;;;;0.00;0.00;;;;;;;9.61;100.00;99065.84;5002660;28;20022;-78
2023/03/17 01:38:10;;;;;;;0.00;0.00;;;;;;;9.54;100.00;99066.19;5008324;28;20026;-77
2023/03/17 01:40:45;;;;;;;0.00;0.00;;;;;;;9.62;100.00;99075.63;4980189;28;20050;-78
2023/03/17 01:43:10;;;;;;;0.00;0.00;;;;;;;9.61;100.00;99084.94;5003541;28;20096;-77
2023/03/17 01:46:13;;;;;;;0.00;0.00;;;;;;;9.69;100.00;99089.75;4997589;28;20472;-76
2023/03/17 01:48:45;;;;;;;0.00;0.00;;;;;;;9.78;100.00;99071.63;4977383;28;20034;-78
2023/03/17 01:51:17;;;;;;;0.00;0.00;;;;;;;9.82;100.00;99077.28;4981020;28;20030;-78
2023/03/17 01:53:46;;;;;;;0.00;0.00;;;;;;;9.78;100.00;99070.78;4989474;28;20037;-77
2023/03/17 01:56:11;;;;;;;0.00;0.00;;;;;;;9.78;100.00;99068.06;4977733;28;20030;-76
2023/03/17 01:58:39;;;;;;;0.00;0.00;;;;;;;9.78;100.00;99071.63;5004598;28;20673;-76
2023/03/17 02:01:06;;;;;;;0.00;0.00;;;;;;;9.82;100.00;99074.56;4973794;28;20030;-76
2023/03/17 02:03:32;;;;;;;0.00;0.00;;;;;;;9.84;100.00;99075.09;4993031;28;20033;-76
2023/03/17 02:05:59;;;;;;;0.00;0.00;;;;;;;9.83;100.00;99073.47;4985132;28;20391;-76
2023/03/17 02:08:25;;;;;;;0.00;0.00;;;;;;;9.83;100.00;99068.00;4976615;28;20049;-75
2023/03/17 02:10:51;;;;;;;0.00;0.00;;;;;;;9.80;100.00;99063.13;4984419;28;20022;-75
2023/03/17 02:13:17;;;;;;;0.00;0.00;;;;;;;9.83;100.00;99073.47;4973341;28;20046;-75
2023/03/17 02:15:51;;;;;;;0.00;0.00;;;;;;;9.82;100.00;99054.66;4985327;28;20565;-75
2023/03/17 02:18:19;;;;;;;0.00;0.00;;;;;;;9.83;100.00;99057.09;4999846;28;20038;-75
2023/03/17 02:20:45;;;;;;;0.00;0.00;;;;;;;9.84;100.00;99064.19;4984099;28;20444;-75
2023/03/17 02:23:13;;;;;;;0.00;0.00;;;;;;;9.84;100.00;99058.72;4991136;28;20116;-76
2023/03/17 02:25:39;;;;;;;0.00;0.00;;;;;;;9.81;100.00;99042.09;4997582;28;20026;-76
2023/03/17 02:28:13;;;;;;;0.00;0.00;;;;;;;9.90;100.00;99054.81;4965062;28;20389;-76
2023/03/17 02:30:39;;;;;;;0.00;0.00;;;;;;;9.96;100.00;99050.88;4986722;28;20096;-76
2023/03/17 02:33:05;;;;;;;0.00;0.00;;;;;;;10.02;100.00;99059.00;4985553;28;20133;-76
2023/03/17 02:35:30;;;;;;;0.10;0.10;;;;;;;10.03;100.00;99055.16;4982451;28;20026;-76
2023/03/17 02:37:56;;;;;;;0.00;0.00;;;;;;;10.02;100.00;99054.34;4988550;28;20032;-76
2023/03/17 02:40:23;;;;;;;0.00;0.00;;;;;;;9.99;100.00;99048.66;4966871;28;20053;-76
2023/03/17 02:42:49;;;;;;;0.00;0.00;;;;;;;9.98;100.00;99049.78;4973997;28;20386;-76
2023/03/17 02:45:14;;;;;;;0.00;0.00;;;;;;;9.91;100.00;99042.75;4985376;28;20439;-76
2023/03/17 02:47:41;;;;;;;0.00;0.00;;;;;;;9.92;100.00;99043.59;4981031;28;20084;-76
2023/03/17 02:50:09;;;;;;;0.00;0.00;;;;;;;9.89;100.00;99044.97;4983677;28;20041;-77
2023/03/17 02:52:35;;;;;;;0.00;0.00;;;;;;;9.75;100.00;99024.97;4982907;28;20061;-76
2023/03/17 02:55:00;;;;;;;0.00;0.00;;;;;;;9.86;100.00;99031.13;4960294;28;20062;-77
2023/03/17 02:57:26;;;;;;;0.00;0.00;;;;;;;9.81;100.00;99037.44;4985506;28;20029;-76
2023/03/17 02:59:51;;;;;;;0.00;0.00;;;;;;;9.76;100.00;99030.13;4974691;28;20053;-76
2023/03/17 03:02:17;;;;;;;0.00;0.00;;;;;;;9.79;100.00;99034.19;4968681;28;20038;-77
2023/03/17 03:04:42;;;;;;;0.00;0.00;;;;;;;9.81;100.00;99031.97;4974865;28;20022;-75
2023/03/17 03:07:09;;;;;;;0.00;0.00;;;;;;;9.84;100.00;99031.41;4995900;28;20096;-77
2023/03/17 03:09:35;;;;;;;0.00;0.00;;;;;;;9.83;100.00;99024.31;4972402;28;20108;-77
2023/03/17 03:12:01;;;;;;;0.05;0.05;;;;;;;9.82;100.00;99017.22;5003682;28;20029;-76
2023/03/17 03:14:27;;;;;;;0.00;0.00;;;;;;;9.81;100.00;99018.31;4983500;28;20419;-76
2023/03/17 03:16:53;;;;;;;0.00;0.00;;;;;;;9.85;100.00;99022.09;4966148;28;20041;-76
2023/03/17 03:19:18;;;;;;;0.00;0.00;;;;;;;9.82;100.00;99011.78;4980763;28;20080;-77
2023/03/17 03:21:44;;;;;;;0.00;0.00;;;;;;;9.85;100.00;99013.91;4973942;28;20030;-78
2023/03/17 03:24:10;;;;;;;0.00;0.00;;;;;;;9.84;100.00;99015.03;4989179;28;20033;-76
2023/03/17 03:26:36;;;;;;;0.00;0.00;;;;;;;9.84;100.00;99009.56;4963065;28;20038;-77
2023/03/17 03:29:02;;;;;;;0.00;0.00;;;;;;;9.88;100.00;98998.84;4953750;28;20030;-76
2023/03/17 03:31:28;;;;;;;0.00;0.00;;;;;;;9.91;100.00;98999.06;4976183;28;20125;-76
2023/03/17 03:33:54;;;;;;;0.00;0.00;;;;;;;9.93;100.00;98996.88;4980244;28;20109;-77
2023/03/17 03:36:20;;;;;;;0.00;0.00;;;;;;;9.93;100.00;99002.31;4986994;28;20042;-76
2023/03/17 03:38:45;;;;;;;0.00;0.00;;;;;;;9.93;100.00;98996.06;4998194;28;20105;-77
2023/03/17 03:41:11;;;;;;;0.00;0.00;;;;;;;9.91;100.00;98999.06;4973361;28;20121;-76
2023/03/17 03:43:37;;;;;;;0.00;0.00;;;;;;;10.01;100.00;99019.94;4986896;28;20036;-77
2023/03/17 03:46:03;;;;;;;0.00;0.00;;;;;;;10.02;100.00;99018.06;4970088;28;20531;-76
2023/03/17 03:48:29;;;;;;;0.00;0.00;;;;;;;10.04;100.00;99018.56;5000952;28;20095;-76
2023/03/17 03:50:56;;;;;;;0.00;0.00;;;;;;;10.12;100.00;99020.63;4998220;28;20029;-75
2023/03/17 03:53:22;;;;;;;0.00;0.00;;;;;;;10.11;100.00;99016.25;4998082;28;20030;-77
2023/03/17 03:55:48;;;;;;;0.00;0.00;;;;;;;9.99;100.00;98999.50;4994145;28;20539;-79
2023/03/17 03:58:21;;;;;;;0.00;0.00;;;;;;;9.91;100.00;98992.81;4988636;28;20025;-77
2023/03/17 04:00:47;;;;;;;0.00;0.00;;;;;;;9.91;100.00;99012.72;5006726;28;20065;-78
2023/03/17 04:03:13;;;;;;;0.00;0.00;;;;;;;9.96;100.00;99020.03;4999077;28;20054;-77
2023/03/17 04:05:38;;;;;;;0.00;0.00;;;;;;;10.06;100.00;99024.50;4987016;28;20014;-77
2023/03/17 04:08:06;;;;;;;0.00;0.00;;;;;;;10.09;100.00;99026.66;4982560;28;20048;-77
2023/03/17 04:10:33;;;;;;;0.00;0.00;;;;;;;10.18;100.00;99037.72;4988932;28;20120;-77
2023/03/17 04:12:58;;;;;;;0.00;0.00;;;;;;;10.14;100.00;99021.13;5011206;28;20097;-76
2023/03/17 04:15:24;;;;;;;0.00;0.00;;;;;;;10.19;100.00;99020.22;4983672;28;20121;-77
2023/03/17 04:17:49;;;;;;;0.00;0.00;;;;;;;10.28;100.00;99032.91;4982206;28;20049;-77
2023/03/17 04:20:15;;;;;;;0.00;0.00;;;;;;;10.28;100.00;99035.66;4983145;28;20038;-77
2023/03/17 04:22:42;;;;;;;0.00;0.00;;;;;;;10.21;100.00;99029.75;4996140;28;20033;-77
2023/03/17 04:25:10;;;;;;;0.00;0.00;;;;;;;10.17;100.00;99039.66;4985302;28;20044;-77
2023/03/17 04:27:38;;;;;;;0.00;0.00;;;;;;;10.06;100.00;99028.09;4987825;28;20022;-77
2023/03/17 04:30:05;;;;;;;0.00;0.00;;;;;;;10.02;100.00;99028.97;4990966;28;20025;-77
2023/03/17 04:32:30;;;;;;;0.00;0.00;;;;;;;10.11;100.00;99047.09;5005806;28;20095;-77
2023/03/17 04:34:56;;;;;;;0.00;0.00;;;;;;;10.14;100.00;99048.44;4982425;28;20065;-76
2023/03/17 04:37:22;;;;;;;0.00;0.00;;;;;;;10.11;100.00;99027.19;5004066;28;20040;-76
2023/03/17 04:39:48;;;;;;;0.00;0.00;;;;;;;10.07;100.00;99039.81;5003365;28;20081;-76
2023/03/17 04:42:16;;;;;;;0.03;0.03;;;;;;;9.94;100.00;99031.25;5010020;28;20109;-76
2023/03/17 04:44:42;;;;;;;0.00;0.00;;;;;;;9.83;100.00;99039.88;4999454;28;20036;-75
2023/03/17 04:47:08;;;;;;;0.00;0.00;;;;;;;9.74;100.00;99043.28;4975009;28;20037;-76
2023/03/17 04:49:33;;;;;;;0.00;0.00;;;;;;;9.67;100.00;99042.84;4969994;28;20071;-76
2023/03/17 04:51:59;;;;;;;0.03;0.03;;;;;;;9.57;100.00;99038.31;4990307;28;20107;-77
2023/03/17 04:54:29;;;;;;;0.00;0.00;;;;;;;9.50;100.00;99026.94;4995015;28;20040;-76
2023/03/17 04:56:55;;;;;;;0.00;0.00;;;;;;;9.48;100.00;99017.44;4977420;28;20105;-77
2023/03/17 04:59:20;;;;;;;0.00;0.00;;;;;;;9.41;100.00;99025.97;4973261;28;20497;-76
2023/03/17 05:01:46;;;;;;;0.00;0.00;;;;;;;9.43;100.00;99042.84;4988504;28;20032;-76
2023/03/17 05:04:11;;;;;;;0.00;0.00;;;;;;;9.44;100.00;99044.50;4975063;28;20034;-78
2023/03/17 05:06:38;;;;;;;0.00;0.00;;;;;;;9.22;100.00;99015.84;4959525;28;20032;-77
2023/03/17 05:09:04;;;;;;;0.00;0.00;;;;;;;9.43;100.00;99043.69;4992306;28;20025;-76
2023/03/17 05:11:29;;;;;;;0.00;0.00;;;;;;;9.46;100.00;99047.72;4973994;28;20029;-77
2023/03/17 05:13:55;;;;;;;0.00;0.00;;;;;;;9.37;100.00;99033.13;5003789;28;20022;-77
2023/03/17 05:16:21;;;;;;;0.00;0.00;;;;;;;9.43;100.00;99049.16;4977820;28;20030;-76
2023/03/17 05:18:47;;;;;;;0.08;0.08;;;;;;;9.37;100.00;99038.56;4985605;28;20033;-76
2023/03/17 05:21:12;;;;;;;0.00;0.00;;;;;;;9.43;100.00;99048.31;4974304;28;20038;-76
2023/03/17 05:23:39;;;;;;;0.00;0.00;;;;;;;9.42;100.00;99036.59;4999594;28;20041;-76
2023/03/17 05:26:05;;;;;;;0.00;0.00;;;;;;;9.40;100.00;99038.00;4989552;28;20029;-76
2023/03/17 05:28:31;;;;;;;0.00;0.00;;;;;;;9.36;100.00;99036.94;4997082;28;20105;-76
2023/03/17 05:30:57;;;;;;;0.00;0.00;;;;;;;9.41;100.00;99047.81;4968516;28;20108;-76
2023/03/17 05:33:23;;;;;;;0.00;0.00;;;;;;;9.49;100.00;99052.63;4977230;28;20192;-77
2023/03/17 05:35:48;;;;;;;0.00;0.00;;;;;;;9.54;100.00;99063.47;4979462;28;20017;-76
2023/03/17 05:38:15;;;;;;;0.00;0.00;;;;;;;9.60;100.00;99065.00;4988617;28;20026;-77
2023/03/17 05:40:41;;;;;;;0.00;0.00;;;;;;;9.63;100.00;99066.34;5005410;28;20022;-76
2023/03/17 05:43:07;;;;;;;0.00;0.00;;;;;;;9.64;100.00;99064.44;4990009;28;20034;-76
2023/03/17 05:45:32;;;;;;;0.00;0.00;;;;;;;9.66;100.00;99067.69;4983570;28;20040;-78
2023/03/17 05:47:58;;;;;;;0.00;0.00;;;;;;;9.63;100.00;99063.63;4975574;28;20378;-78
2023/03/17 05:50:24;;;;;;;0.00;0.00;;;;;;;9.52;100.00;99045.75;4990846;28;20033;-78
2023/03/17 05:52:51;;;;;;;0.00;0.00;;;;;;;9.52;100.00;99054.78;4980952;28;20113;-76
2023/03/17 05:55:17;;;;;;;0.00;0.00;;;;;;;9.54;100.00;99055.28;5000179;28;20026;-77
2023/03/17 05:57:42;;;;;;;0.00;0.00;;;;;;;9.46;100.00;99050.47;4991487;28;20049;-76
2023/03/17 06:00:09;;;;;;;0.00;0.00;;;;;;;9.39;100.00;99047.31;4968108;28;20131;-76
2023/03/17 06:02:34;;;;;;;0.00;0.00;;;;;;;9.31;100.00;99056.13;4968616;28;20040;-77
2023/03/17 06:04:59;;;;;;;0.00;0.00;;;;;;;9.18;100.00;99046.72;4955594;28;21379;-76
2023/03/17 06:07:25;;;;;;;0.00;0.00;;;;;;;9.19;100.00;99057.34;4971147;28;20546;-78
2023/03/17 06:09:54;;;;;;;0.00;0.00;;;;;;;9.10;100.00;99045.44;5003334;28;20037;-76
2023/03/17 06:12:20;;;;;;;0.00;0.00;;;;;;;9.12;100.00;99048.69;4988398;28;20028;-76
2023/03/17 06:14:45;;;;;;;0.00;0.00;;;;;;;9.06;100.00;99033.50;4975557;28;20124;-77
2023/03/17 06:17:11;;;;;;;0.00;0.00;;;;;;;9.10;100.00;99040.00;4951184;28;20069;-76
2023/03/17 06:19:36;;;;;;;0.00;0.00;;;;;;;9.13;100.00;99027.69;4989675;28;20085;-76
2023/03/17 06:22:02;;;;;;;0.00;0.00;;;;;;;9.17;100.00;99035.00;4982441;28;20034;-77
2023/03/17 06:24:27;;;;;;;0.00;0.00;;;;;;;9.17;100.00;99032.28;4974151;28;20037;-75
2023/03/17 06:26:53;;;;;;;0.00;0.00;;;;;;;9.16;100.00;99033.38;4991817;28;20786;-76
2023/03/17 06:29:18;;;;;;;0.00;0.00;;;;;;;9.18;100.00;99031.16;4988400;28;20057;-76
2023/03/17 06:31:49;;;;;;;0.00;0.00;;;;;;;9.27;100.00;99025.88;4958384;28;20041;-75
2023/03/17 06:34:16;;;;;;;0.00;0.00;;;;;;;9.35;100.00;99029.88;4968871;28;20026;-76
2023/03/17 06:36:42;;;;;;;0.00;0.00;;;;;;;9.47;100.00;99032.19;5006203;28;20830;-76
2023/03/17 06:39:08;;;;;;;0.00;0.00;;;;;;;9.42;100.00;99016.69;4960844;28;20044;-76
2023/03/17 06:41:33;;;;;;;0.00;0.00;;;;;;;9.59;100.00;99038.84;4991318;28;20037;-77
2023/03/17 06:43:59;;;;;;;0.00;0.00;;;;;;;9.70;100.00;99053.16;4955183;28;20035;-77
2023/03/17 06:46:24;;;;;;;0.00;0.00;;;;;;;9.73;100.00;99051.75;4944122;28;20037;-77
2023/03/17 06:48:50;;;;;;;0.00;0.00;;;;;;;9.67;100.00;99042.03;4987221;28;20041;-77
2023/03/17 06:51:15;;;;;;;0.00;0.00;;;;;;;9.64;100.00;99034.41;4955387;28;20492;-76
2023/03/17 06:53:40;;;;;;;0.00;0.00;;;;;;;9.73;100.00;99051.75;4973351;28;20632;-76
2023/03/17 06:56:06;;;;;;;0.00;0.00;;;;;;;9.77;100.00;99058.28;4960249;28;20037;-76
2023/03/17 06:58:32;;;;;;;0.00;0.00;;;;;;;9.75;100.00;99061.28;4952929;28;20029;-76
2023/03/17 07:00:58;;;;;;;0.00;0.00;;;;;;;9.69;100.00;99050.72;4966072;28;20033;-75
2023/03/17 07:03:24;;;;;;;0.00;0.00;;;;;;;9.88;100.00;99086.22;4950742;28;20165;-76
2023/03/17 07:05:50;;;;;;;0.00;0.00;;;;;;;9.88;100.00;99070.66;4966710;28;20161;-76
2023/03/17 07:08:16;;;;;;;0.00;0.00;;;;;;;9.93;100.00;99067.84;4984088;28;20491;-75
2023/03/17 07:10:42;;;;;;;0.00;0.00;;;;;;;9.98;100.00;99058.78;4948298;28;20030;-76
2023/03/17 07:13:09;;;;;;;0.00;0.00;;;;;;;9.86;100.00;99037.38;4983018;28;20039;-77
2023/03/17 07:15:36;;;;;;;0.00;0.00;;;;;;;9.87;100.00;99046.38;4949580;28;20102;-77
2023/03/17 07:18:02;;;;;;;0.00;0.00;;;;;;;9.86;100.00;99045.56;4967856;28;20037;-77
2023/03/17 07:20:28;;;;;;;0.00;0.00;;;;;;;9.73;100.00;99041.66;4955759;28;20113;-75
2023/03/17 07:22:54;;;;;;;0.00;0.00;;;;;;;9.66;100.00;99034.94;4968777;28;20469;-76
2023/03/17 07:25:19;;;;;;;0.00;0.00;;;;;;;9.64;100.00;99026.22;4947872;28;20112;-77
2023/03/17 07:27:45;;;;;;;0.00;0.00;;;;;;;9.64;100.00;99023.47;4932223;28;20024;-76
2023/03/17 07:30:12;;;;;;;0.00;0.00;;;;;;;9.71;100.00;99038.41;4961773;28;20053;-75
2023/03/17 07:32:38;;;;;;;0.10;0.10;;;;;;;9.69;100.00;99032.41;4945665;28;20026;-76
2023/03/17 07:35:04;;;;;;;0.00;0.00;;;;;;;9.71;100.00;99032.13;4953368;28;20595;-75
2023/03/17 07:37:30;;;;;;;0.00;0.00;;;;;;;9.73;100.00;99024.47;4980599;28;20034;-76
2023/03/17 07:39:56;;;;;;;0.00;0.00;;;;;;;9.77;100.00;99041.88;4946415;28;20400;-76
2023/03/17 07:42:21;;;;;;;0.00;0.00;;;;;;;9.94;100.00;99064.03;4948742;28;20026;-76
2023/03/17 07:44:46;;;;;;;0.00;0.00;;;;;;;10.07;100.00;99078.03;4946587;28;20508;-76
2023/03/17 07:47:12;;;;;;;0.00;0.00;;;;;;;10.05;100.00;99067.41;4931435;28;20146;-77
2023/03/17 07:49:38;;;;;;;0.00;0.00;;;;;;;10.13;100.00;99055.84;4932784;28;20063;-75
2023/03/17 07:52:03;;;;;;;0.00;0.00;;;;;;;10.12;100.00;99026.09;4940769;28;20023;-78
2023/03/17 07:54:29;;;;;;;0.00;0.00;;;;;;;10.38;100.00;99050.28;4969474;28;20058;-78
2023/03/17 07:56:57;;;;;;;0.00;0.00;;;;;;;10.58;100.00;99060.88;4948216;28;20487;-78
2023/03/17 07:59:23;;;;;;;0.00;0.00;;;;;;;10.63;100.00;99047.13;4961695;28;20077;-78
2023/03/17 08:01:56;;;;;;;0.10;0.10;;;;;;;10.78;100.00;99058.91;4987128;28;20054;-78
2023/03/17 08:04:57;;;;;;;0.00;0.00;;;;;;;10.72;100.00;99049.97;5001401;28;20461;-78
2023/03/17 08:07:28;;;;;;;0.00;0.00;;;;;;;10.78;100.00;99054.25;4909756;29;20035;-77
2023/03/17 08:09:53;;;;;;;0.00;0.00;;;;;;;10.97;100.00;99056.91;4986078;28;20539;-77
2023/03/17 08:12:19;;;;;;;0.00;0.00;;;;;;;11.12;100.00;99068.69;4995587;28;20113;-78
2023/03/17 08:14:57;;;;;;;;;;;;;;;;;;;;;
2023/03/17 08:17:26;;;;;;;0.00;0.00;;;;;;;11.15;100.00;99079.00;5001763;28;20024;-77
2023/03/17 08:20:01;;;;;;;0.00;0.00;;;;;;;11.03;100.00;99081.44;5001483;28;20021;-78
2023/03/17 08:22:32;;;;;;;0.00;0.00;;;;;;;10.91;100.00;99077.25;4979828;28;20568;-78
2023/03/17 08:55:59;;;;;;;0.00;0.00;;;;;;;11.21;100.00;99083.25;4924962;29;20047;-82
2023/03/17 08:58:42;;;;;;;0.00;0.00;;;;;;;11.31;100.00;99094.00;4924471;29;20032;-78
2023/03/17 09:01:10;;;;;;;0.00;0.00;;;;;;;11.29;100.00;99085.31;4909454;29;20085;-78
2023/03/17 09:03:38;;;;;;;0.00;0.00;;;;;;;11.28;100.00;99094.63;4907195;29;20215;-80
2023/03/17 09:06:05;;;;;;;0.00;0.00;;;;;;;11.25;100.00;99099.91;4920602;28;20040;-79
2023/03/17 09:08:39;;;;;;;0.00;0.00;;;;;;;11.24;100.00;99098.28;4966828;28;20022;-79
2023/03/17 09:11:09;;;;;;;0.10;0.10;;;;;;;11.21;100.00;99083.25;4966515;28;20125;-78
2023/03/17 09:13:37;;;;;;;0.00;0.00;;;;;;;11.54;100.00;99105.09;4944619;28;20042;-78
2023/03/17 09:16:04;;;;;;;0.00;0.00;;;;;;;11.55;100.00;99093.03;4986383;28;20015;-79
2023/03/17 09:18:39;;;;;;;0.00;0.00;;;;;;;11.66;100.00;99094.41;4971072;28;20061;-78
2023/03/17 09:21:05;;;;;;;0.00;0.00;;;;;;;11.62;100.00;99087.94;4980072;28;20034;-79
2023/03/17 09:23:33;;;;;;;0.00;0.00;;;;;;;11.54;100.00;99085.91;4955916;28;20108;-77
2023/03/17 09:26:28;;;;;;;0.00;0.00;;;;;;;11.57;100.00;99090.78;4962613;28;20133;-77
2023/03/17 09:28:54;;;;;;;0.00;0.00;;;;;;;11.60;100.00;99090.16;4945590;28;20088;-78
2023/03/17 09:31:22;;;;;;;0.00;0.00;;;;;;;11.69;100.00;99102.00;4972014;28;20487;-75
2023/03/17 09:33:48;;;;;;;0.00;0.00;;;;;;;11.79;100.00;99106.47;4953881;28;20050;-75
2023/03/17 09:36:13;;;;;;;0.00;0.00;;;;;;;11.82;100.00;99097.63;4964534;28;20053;-79
2023/03/17 09:38:41;;;;;;;0.00;0.00;;;;;;;11.95;100.00;99087.81;4977464;28;20040;-80
2023/03/17 09:41:36;;;;;;;0.00;0.00;;;;;;;12.44;100.00;99111.94;4966436;28;20026;-80
2023/03/17 09:44:05;;;;;;;0.00;0.00;;;;;;;12.54;100.00;99114.44;4978045;28;20485;-79
2023/03/17 09:47:03;;;;;;;0.00;0.00;;;;;;;12.45;100.00;99108.88;4981871;28;20031;-79
2023/03/17 09:49:48;;;;;;;0.00;0.00;;;;;;;12.29;100.00;99111.16;4968100;28;20491;-79
2023/03/17 09:52:31;;;;;;;0.00;0.00;;;;;;;12.29;100.00;99100.19;4962637;28;20035;-79
2023/03/17 09:54:57;;;;;;;0.00;0.00;;;;;;;12.55;100.00;99081.22;4967015;28;20828;-76
2023/03/17 09:57:35;;;;;;;0.00;0.00;;;;;;;13.25;100.00;99083.53;4971412;28;20078;-78
2023/03/17 10:00:44;;;;;;;;;;;;;;;;;;;;;
2023/03/17 10:03:18;;;;;;;0.00;0.00;;;;;;;13.70;98.03;99094.38;4996896;28;20122;-77
2023/03/17 10:05:43;;;;;;;0.00;0.00;;;;;;;13.61;97.68;99071.59;4983484;28;20017;-77
2023/03/17 10:08:24;;;;;;;0.00;0.00;;;;;;;13.48;95.62;99067.00;4986639;28;20068;-79
2023/03/17 10:11:00;;;;;;;0.00;0.00;;;;;;;13.41;93.14;99089.44;4987085;28;20026;-78
2023/03/17 10:13:41;;;;;;;0.00;0.00;;;;;;;13.04;93.94;99086.00;5001264;28;20112;-78
2023/03/17 10:16:11;;;;;;;0.00;0.00;;;;;;;12.72;95.17;99086.00;5022310;28;20063;-78
2023/03/17 10:18:48;;;;;;;0.00;0.00;;;;;;;12.41;96.85;99096.91;4981748;28;20045;-80
2023/03/17 10:21:20;;;;;;;0.00;0.00;;;;;;;12.03;98.17;99109.00;5003052;28;20025;-80
2023/03/17 10:23:45;;;;;;;0.00;0.00;;;;;;;11.63;100.00;99077.78;4981891;28;20062;-80
2023/03/17 10:26:20;;;;;;;0.00;0.00;;;;;;;11.68;100.00;99094.94;4990666;28;20108;-80
2023/03/17 10:28:45;;;;;;;;;;;;;;;11.60;100.00;99106.59;4982404;28;20053;-80
2023/03/17 10:31:16;;;;;;;0.00;0.00;;;;;;;11.45;100.00;99093.22;5019154;28;19952;-79
2023/03/17 10:33:44;;;;;;;0.00;0.00;;;;;;;11.48;100.00;99106.31;4984147;28;20033;-79
2023/03/17 10:36:15;;;;;;;0.00;0.00;;;;;;;11.46;100.00;99108.53;4989121;28;20034;-79
2023/03/17 10:38:53;;;;;;;0.00;0.00;;;;;;;11.44;100.00;99103.34;4982896;28;20026;-79
2023/03/17 10:41:19;;;;;;;0.00;0.00;;;;;;;11.63;100.00;99095.03;4986027;28;20080;-80
2023/03/17 10:43:53;;;;;;;0.00;0.00;;;;;;;11.65;100.00;99079.13;4980355;28;20021;-81
2023/03/17 10:46:24;;;;;;;0.00;0.00;;;;;;;11.92;100.00;99107.56;4981851;28;20022;-80
2023/03/17 10:49:06;;;;;;;0.00;0.00;;;;;;;12.36;100.00;99078.66;5004139;28;20439;-79
2023/03/17 10:52:06;;;;;;;;;;;;;;;;;;;;;
2023/03/17 10:54:39;;;;;;;0.00;0.00;;;;;;;12.73;100.00;99093.13;5000354;28;20018;-79
2023/03/17 10:57:09;;;;;;;0.00;0.00;;;;;;;12.88;100.00;99113.06;5004090;28;20444;-77
2023/03/17 11:00:23;;;;;;;0.00;0.00;;;;;;;13.38;100.00;99123.84;5000169;28;20799;-79
2023/03/17 11:03:32;;;;;;;;;;;;;;;;;;;;;
2023/03/17 11:06:18;;;;;;;0.00;0.00;;;;;;;15.11;91.27;99109.78;4974600;28;20036;-77
2023/03/17 11:08:54;;;;;;;0.00;0.00;;;;;;;17.55;84.65;99105.47;4980952;28;20022;-76
2023/03/17 11:11:33;;;;;;;0.00;0.00;;;;;;;19.24;73.05;99109.63;4981760;28;20338;-77
2023/03/17 11:14:15;;;;;;;0.00;0.00;;;;;;;18.70;71.44;99113.69;4998935;28;20084;-75
2023/03/17 11:17:03;;;;;;;0.00;0.00;;;;;;;17.72;71.27;99121.03;4981963;28;20037;-76
2023/03/17 11:19:35;;;;;;;0.00;0.00;;;;;;;17.33;75.29;99126.06;5000558;28;20397;-77
2023/03/17 11:22:29;;;;;;;0.00;0.00;;;;;;;17.38;73.68;99117.56;4981742;28;20066;-78
2023/03/17 11:25:24;;;;;;;;;;;;;;;;;;;;;
2023/03/17 11:27:58;;;;;;;0.00;0.00;;;;;;;16.60;73.72;99132.94;5003744;28;20289;-77
2023/03/17 11:30:41;;;;;;;0.00;0.00;;;;;;;16.40;75.25;99124.34;4985988;28;20091;-78
2023/03/17 11:33:20;;;;;;;0.00;0.00;;;;;;;15.77;76.17;99107.69;5006805;28;20061;-79
2023/03/17 11:36:10;;;;;;;0.00;0.00;;;;;;;15.67;78.54;99108.91;4984263;28;20529;-79
2023/03/17 11:38:59;;;;;;;0.00;0.00;;;;;;;20.68;68.09;99129.66;4999892;28;20064;-77
2023/03/17 11:41:40;;;;;;;0.00;0.00;;;;;;;20.58;58.32;99125.44;4985926;28;20040;-81
2023/03/17 11:44:34;;;;;;;;;;;;;;;;;;;;;
2023/03/17 11:47:22;;;;;;;0.00;0.00;;;;;;;18.62;61.51;99112.69;5004640;28;20025;-76
2023/03/17 11:50:25;;;;;;;0.00;0.00;;;;;;;18.01;62.61;99121.97;4976341;28;20045;-78
2023/03/17 11:52:59;;;;;;;0.00;0.00;;;;;;;16.97;66.09;99113.78;4999125;28;20026;-79
2023/03/17 11:55:40;;;;;;;0.00;0.00;;;;;;;18.61;67.07;99120.19;4978922;28;20058;-82
2023/03/17 11:58:12;;;;;;;0.00;0.00;;;;;;;18.46;61.18;99109.88;4984456;28;20109;-80
2023/03/17 12:00:49;;;;;;;0.00;0.00;;;;;;;17.98;63.78;99095.81;4985515;28;20049;-79
2023/03/17 12:03:28;;;;;;;0.00;0.00;;;;;;;17.35;64.58;99091.41;4984428;28;20068;-78
2023/03/17 12:05:59;;;;;;;0.00;0.00;;;;;;;17.01;67.25;99095.38;4980430;28;20018;-79
2023/03/17 12:08:41;;;;;;;0.00;0.00;;;;;;;17.52;67.55;99101.47;4999371;28;20033;-80
2023/03/17 12:11:11;;;;;;;0.00;0.00;;;;;;;17.27;65.88;99100.59;5000883;28;20037;-78
2023/03/17 12:13:47;;;;;;;0.00;0.00;;;;;;;18.14;70.04;99106.94;4982686;28;20061;-79
2023/03/17 12:16:30;;;;;;;0.00;0.00;;;;;;;23.09;56.58;99111.09;4989807;28;20457;-78
2023/03/17 12:19:35;;;;;;;0.00;0.00;;;;;;;29.29;43.51;99126.66;5003404;28;20484;-79
2023/03/17 12:22:22;;;;;;;0.00;0.00;;;;;;;29.43;32.70;99112.34;5002633;28;20034;-79
2023/03/17 12:25:08;;;;;;;0.00;0.00;;;;;;;27.07;36.57;99113.66;5004883;28;20041;-78